sensor_id;sensor_type;location;lat;lon;timestamp;temperature;humidity
74484;SHT31;62942;52.462;10.846;2024-03-08T00:01:07;-0.5;84.5
74484;SHT31;62942;52.462;10.846;2024-03-08T00:02:17;-0.5;84.6
74484;SHT31;62942;52.462;10.846;2024-03-08T00:03:27;-0.5;84.6
74484;SHT31;62942;52.462;10.846;2024-03-08T00:04:37;-0.5;84.7
74484;SHT31;62942;52.462;10.846;2024-03-08T00:05:47;-0.5;84.7
74484;SHT31;62942;52.462;10.846;2024-03-08T00:06:56;-0.6;84.7
74484;SHT31;62942;52.462;10.846;2024-03-08T00:07:56;-0.5;84.7
74484;SHT31;62942;52.462;10.846;2024-03-08T00:08:57;-0.6;84.7
74484;SHT31;62942;52.462;10.846;2024-03-08T00:10:07;-0.6;84.7
74484;SHT31;62942;52.462;10.846;2024-03-08T00:11:16;-0.6;84.7
74484;SHT31;62942;52.462;10.846;2024-03-08T00:12:17;-0.6;84.8
74484;SHT31;62942;52.462;10.846;2024-03-08T00:13:27;-0.6;84.9
74484;SHT31;62942;52.462;10.846;2024-03-08T00:14:36;-0.6;84.9
74484;SHT31;62942;52.462;10.846;2024-03-08T00:15:37;-0.7;85
74484;SHT31;62942;52.462;10.846;2024-03-08T00:16:47;-0.7;85
74484;SHT31;62942;52.462;10.846;2024-03-08T00:17:57;-0.7;85.1
74484;SHT31;62942;52.462;10.846;2024-03-08T00:18:57;-0.7;85.1
74484;SHT31;62942;52.462;10.846;2024-03-08T00:20:07;-0.7;85.2
74484;SHT31;62942;52.462;10.846;2024-03-08T00:21:17;-0.7;85.2
74484;SHT31;62942;52.462;10.846;2024-03-08T00:22:26;-0.7;85.2
74484;SHT31;62942;52.462;10.846;2024-03-08T00:23:37;-0.7;85.3
74484;SHT31;62942;52.462;10.846;2024-03-08T00:24:47;-0.7;85.4
74484;SHT31;62942;52.462;10.846;2024-03-08T00:25:46;-0.7;85.4
74484;SHT31;62942;52.462;10.846;2024-03-08T00:26:57;-0.7;85.4
74484;SHT31;62942;52.462;10.846;2024-03-08T00:28:06;-0.8;85.4
74484;SHT31;62942;52.462;10.846;2024-03-08T00:29:17;-0.8;85.4
74484;SHT31;62942;52.462;10.846;2024-03-08T00:30:27;-0.8;85.5
74484;SHT31;62942;52.462;10.846;2024-03-08T00:31:37;-0.7;85.6
74484;SHT31;62942;52.462;10.846;2024-03-08T00:32:46;-0.7;85.6
74484;SHT31;62942;52.462;10.846;2024-03-08T00:33:57;-0.7;85.5
74484;SHT31;62942;52.462;10.846;2024-03-08T00:34:57;-0.7;85.5
74484;SHT31;62942;52.462;10.846;2024-03-08T00:36:07;-0.7;85.5
74484;SHT31;62942;52.462;10.846;2024-03-08T00:37:17;-0.7;85.5
74484;SHT31;62942;52.462;10.846;2024-03-08T00:38:27;-0.7;85.4
74484;SHT31;62942;52.462;10.846;2024-03-08T00:39:37;-0.7;85.4
74484;SHT31;62942;52.462;10.846;2024-03-08T00:40:46;-0.6;85.5
74484;SHT31;62942;52.462;10.846;2024-03-08T00:41:46;-0.6;85.5
74484;SHT31;62942;52.462;10.846;2024-03-08T00:42:57;-0.6;85.4
74484;SHT31;62942;52.462;10.846;2024-03-08T00:44:06;-0.6;85.4
74484;SHT31;62942;52.462;10.846;2024-03-08T00:45:17;-0.6;85.4
74484;SHT31;62942;52.462;10.846;2024-03-08T00:46:26;-0.6;85.4
74484;SHT31;62942;52.462;10.846;2024-03-08T00:47:26;-0.7;85.4
74484;SHT31;62942;52.462;10.846;2024-03-08T00:48:26;-0.7;85.5
74484;SHT31;62942;52.462;10.846;2024-03-08T00:49:37;-0.7;85.5
74484;SHT31;62942;52.462;10.846;2024-03-08T00:50:46;-0.7;85.6
74484;SHT31;62942;52.462;10.846;2024-03-08T00:51:56;-0.6;85.5
74484;SHT31;62942;52.462;10.846;2024-03-08T00:53:07;-0.7;85.5
74484;SHT31;62942;52.462;10.846;2024-03-08T00:54:16;-0.7;85.5
74484;SHT31;62942;52.462;10.846;2024-03-08T00:55:16;-0.7;85.5
74484;SHT31;62942;52.462;10.846;2024-03-08T00:56:27;-0.7;85.5
74484;SHT31;62942;52.462;10.846;2024-03-08T00:57:26;-0.7;85.6
74484;SHT31;62942;52.462;10.846;2024-03-08T00:58:26;-0.7;85.6
74484;SHT31;62942;52.462;10.846;2024-03-08T00:59:37;-0.7;85.6
74484;SHT31;62942;52.462;10.846;2024-03-08T01:00:46;-0.7;85.6
74484;SHT31;62942;52.462;10.846;2024-03-08T01:01:46;-0.7;85.7
74484;SHT31;62942;52.462;10.846;2024-03-08T01:02:46;-0.7;85.7
74484;SHT31;62942;52.462;10.846;2024-03-08T01:03:56;-0.7;85.5
74484;SHT31;62942;52.462;10.846;2024-03-08T01:04:57;-0.7;85.5
74484;SHT31;62942;52.462;10.846;2024-03-08T01:06:07;-0.7;85.5
74484;SHT31;62942;52.462;10.846;2024-03-08T01:07:16;-0.7;85.5
74484;SHT31;62942;52.462;10.846;2024-03-08T01:08:26;-0.7;85.5
74484;SHT31;62942;52.462;10.846;2024-03-08T01:09:36;-0.7;85.6
74484;SHT31;62942;52.462;10.846;2024-03-08T01:10:36;-0.7;85.5
74484;SHT31;62942;52.462;10.846;2024-03-08T01:11:46;-0.7;85.5
74484;SHT31;62942;52.462;10.846;2024-03-08T01:12:56;-0.7;85.4
74484;SHT31;62942;52.462;10.846;2024-03-08T01:14:06;-0.7;85.5
74484;SHT31;62942;52.462;10.846;2024-03-08T01:15:07;-0.7;85.5
74484;SHT31;62942;52.462;10.846;2024-03-08T01:16:16;-0.7;85.5
74484;SHT31;62942;52.462;10.846;2024-03-08T01:17:26;-0.7;85.5
74484;SHT31;62942;52.462;10.846;2024-03-08T01:18:27;-0.7;85.5
74484;SHT31;62942;52.462;10.846;2024-03-08T01:19:36;-0.7;85.5
74484;SHT31;62942;52.462;10.846;2024-03-08T01:20:46;-0.8;85.5
74484;SHT31;62942;52.462;10.846;2024-03-08T01:21:56;-0.7;85.6
74484;SHT31;62942;52.462;10.846;2024-03-08T01:22:56;-0.8;85.6
74484;SHT31;62942;52.462;10.846;2024-03-08T01:24:07;-0.8;85.6
74484;SHT31;62942;52.462;10.846;2024-03-08T01:25:16;-0.8;85.6
74484;SHT31;62942;52.462;10.846;2024-03-08T01:26:26;-0.8;85.6
74484;SHT31;62942;52.462;10.846;2024-03-08T01:27:27;-0.8;85.6
74484;SHT31;62942;52.462;10.846;2024-03-08T01:28:36;-0.9;85.6
74484;SHT31;62942;52.462;10.846;2024-03-08T01:29:36;-0.9;85.7
74484;SHT31;62942;52.462;10.846;2024-03-08T01:30:46;-0.9;85.8
74484;SHT31;62942;52.462;10.846;2024-03-08T01:31:56;-1;85.9
74484;SHT31;62942;52.462;10.846;2024-03-08T01:33:06;-1;86
74484;SHT31;62942;52.462;10.846;2024-03-08T01:34:06;-1;86
74484;SHT31;62942;52.462;10.846;2024-03-08T01:35:16;-1.1;86.1
74484;SHT31;62942;52.462;10.846;2024-03-08T01:36:26;-1.1;86.2
74484;SHT31;62942;52.462;10.846;2024-03-08T01:37:26;-1.1;86.2
74484;SHT31;62942;52.462;10.846;2024-03-08T01:38:26;-1.1;86.3
74484;SHT31;62942;52.462;10.846;2024-03-08T01:39:36;-1.2;86.4
74484;SHT31;62942;52.462;10.846;2024-03-08T01:40:37;-1.2;86.5
74484;SHT31;62942;52.462;10.846;2024-03-08T01:41:46;-1.2;86.6
74484;SHT31;62942;52.462;10.846;2024-03-08T01:42:46;-1.2;86.8
74484;SHT31;62942;52.462;10.846;2024-03-08T01:43:56;-1.3;86.8
74484;SHT31;62942;52.462;10.846;2024-03-08T01:44:56;-1.3;86.8
74484;SHT31;62942;52.462;10.846;2024-03-08T01:46:06;-1.3;86.9
74484;SHT31;62942;52.462;10.846;2024-03-08T01:47:16;-1.4;87
74484;SHT31;62942;52.462;10.846;2024-03-08T01:48:26;-1.4;87
74484;SHT31;62942;52.462;10.846;2024-03-08T01:49:37;-1.5;87.1
74484;SHT31;62942;52.462;10.846;2024-03-08T01:50:46;-1.5;87.3
74484;SHT31;62942;52.462;10.846;2024-03-08T01:51:56;-1.5;87.4
74484;SHT31;62942;52.462;10.846;2024-03-08T01:53:07;-1.5;87.5
74484;SHT31;62942;52.462;10.846;2024-03-08T01:54:17;-1.6;87.6
74484;SHT31;62942;52.462;10.846;2024-03-08T01:55:26;-1.6;87.7
74484;SHT31;62942;52.462;10.846;2024-03-08T01:56:37;-1.6;87.7
74484;SHT31;62942;52.462;10.846;2024-03-08T01:57:46;-1.6;87.8
74484;SHT31;62942;52.462;10.846;2024-03-08T01:58:56;-1.7;87.9
74484;SHT31;62942;52.462;10.846;2024-03-08T01:59:56;-1.7;88
74484;SHT31;62942;52.462;10.846;2024-03-08T02:01:06;-1.7;88
74484;SHT31;62942;52.462;10.846;2024-03-08T02:02:06;-1.8;88.1
74484;SHT31;62942;52.462;10.846;2024-03-08T02:03:16;-1.8;88.2
74484;SHT31;62942;52.462;10.846;2024-03-08T02:04:26;-1.8;88.3
74484;SHT31;62942;52.462;10.846;2024-03-08T02:05:36;-1.8;88.4
74484;SHT31;62942;52.462;10.846;2024-03-08T02:06:46;-1.9;88.5
74484;SHT31;62942;52.462;10.846;2024-03-08T02:07:56;-1.9;88.6
74484;SHT31;62942;52.462;10.846;2024-03-08T02:09:06;-1.9;88.6
74484;SHT31;62942;52.462;10.846;2024-03-08T02:10:07;-1.9;88.6
74484;SHT31;62942;52.462;10.846;2024-03-08T02:11:06;-2;88.7
74484;SHT31;62942;52.462;10.846;2024-03-08T02:12:16;-2;88.8
74484;SHT31;62942;52.462;10.846;2024-03-08T02:13:16;-2;88.8
74484;SHT31;62942;52.462;10.846;2024-03-08T02:14:26;-2;89
74484;SHT31;62942;52.462;10.846;2024-03-08T02:15:26;-2;89.1
74484;SHT31;62942;52.462;10.846;2024-03-08T02:16:36;-2.1;89.3
74484;SHT31;62942;52.462;10.846;2024-03-08T02:17:46;-2;89.4
74484;SHT31;62942;52.462;10.846;2024-03-08T02:18:56;-2.1;89.4
74484;SHT31;62942;52.462;10.846;2024-03-08T02:19:56;-2.1;89.5
74484;SHT31;62942;52.462;10.846;2024-03-08T02:21:06;-2.1;89.6
74484;SHT31;62942;52.462;10.846;2024-03-08T02:22:16;-2.1;89.6
74484;SHT31;62942;52.462;10.846;2024-03-08T02:23:26;-2.1;89.6
74484;SHT31;62942;52.462;10.846;2024-03-08T02:24:26;-2.2;89.7
74484;SHT31;62942;52.462;10.846;2024-03-08T02:25:36;-2.2;89.8
74484;SHT31;62942;52.462;10.846;2024-03-08T02:26:46;-2.2;89.9
74484;SHT31;62942;52.462;10.846;2024-03-08T02:27:56;-2.2;90
74484;SHT31;62942;52.462;10.846;2024-03-08T02:29:06;-2.2;90
74484;SHT31;62942;52.462;10.846;2024-03-08T02:30:16;-2.3;90.1
74484;SHT31;62942;52.462;10.846;2024-03-08T02:31:26;-2.3;90.1
74484;SHT31;62942;52.462;10.846;2024-03-08T02:32:36;-2.3;90.1
74484;SHT31;62942;52.462;10.846;2024-03-08T02:33:46;-2.3;90.2
74484;SHT31;62942;52.462;10.846;2024-03-08T02:34:56;-2.3;90.3
74484;SHT31;62942;52.462;10.846;2024-03-08T02:36:06;-2.3;90.3
74484;SHT31;62942;52.462;10.846;2024-03-08T02:37:16;-2.3;90.4
74484;SHT31;62942;52.462;10.846;2024-03-08T02:38:17;-2.4;90.5
74484;SHT31;62942;52.462;10.846;2024-03-08T02:39:26;-2.3;90.6
74484;SHT31;62942;52.462;10.846;2024-03-08T02:40:36;-2.3;90.7
74484;SHT31;62942;52.462;10.846;2024-03-08T02:41:46;-2.3;90.8
74484;SHT31;62942;52.462;10.846;2024-03-08T02:42:56;-2.3;90.9
74484;SHT31;62942;52.462;10.846;2024-03-08T02:44:06;-2.3;91
74484;SHT31;62942;52.462;10.846;2024-03-08T02:45:06;-2.3;91.1
74484;SHT31;62942;52.462;10.846;2024-03-08T02:46:06;-2.2;91.1
74484;SHT31;62942;52.462;10.846;2024-03-08T02:47:16;-2.3;91.2
74484;SHT31;62942;52.462;10.846;2024-03-08T02:48:26;-2.2;91.2
74484;SHT31;62942;52.462;10.846;2024-03-08T02:49:36;-2.2;91.2
74484;SHT31;62942;52.462;10.846;2024-03-08T02:50:36;-2.2;91.3
74484;SHT31;62942;52.462;10.846;2024-03-08T02:51:46;-2.2;91.3
74484;SHT31;62942;52.462;10.846;2024-03-08T02:52:56;-2.2;91.3
74484;SHT31;62942;52.462;10.846;2024-03-08T02:54:06;-2.2;91.4
74484;SHT31;62942;52.462;10.846;2024-03-08T02:55:16;-2.2;91.4
74484;SHT31;62942;52.462;10.846;2024-03-08T02:56:26;-2.2;91.4
74484;SHT31;62942;52.462;10.846;2024-03-08T02:57:36;-2.2;91.5
74484;SHT31;62942;52.462;10.846;2024-03-08T02:58:36;-2.1;91.5
74484;SHT31;62942;52.462;10.846;2024-03-08T02:59:36;-2.1;91.6
74484;SHT31;62942;52.462;10.846;2024-03-08T03:00:36;-2.1;91.6
74484;SHT31;62942;52.462;10.846;2024-03-08T03:01:46;-2.1;91.7
74484;SHT31;62942;52.462;10.846;2024-03-08T03:02:56;-2;91.8
74484;SHT31;62942;52.462;10.846;2024-03-08T03:04:06;-2;91.9
74484;SHT31;62942;52.462;10.846;2024-03-08T03:05:16;-1.9;92
74484;SHT31;62942;52.462;10.846;2024-03-08T03:06:16;-1.9;91.9
74484;SHT31;62942;52.462;10.846;2024-03-08T03:07:26;-1.8;91.8
74484;SHT31;62942;52.462;10.846;2024-03-08T03:08:36;-1.8;91.8
74484;SHT31;62942;52.462;10.846;2024-03-08T03:09:46;-1.7;91.7
74484;SHT31;62942;52.462;10.846;2024-03-08T03:10:56;-1.7;91.6
74484;SHT31;62942;52.462;10.846;2024-03-08T03:12:06;-1.7;91.5
74484;SHT31;62942;52.462;10.846;2024-03-08T03:13:16;-1.7;91.4
74484;SHT31;62942;52.462;10.846;2024-03-08T03:14:16;-1.6;91.4
74484;SHT31;62942;52.462;10.846;2024-03-08T03:15:16;-1.6;91.2
74484;SHT31;62942;52.462;10.846;2024-03-08T03:16:26;-1.6;91.2
74484;SHT31;62942;52.462;10.846;2024-03-08T03:17:36;-1.6;91.1
74484;SHT31;62942;52.462;10.846;2024-03-08T03:18:46;-1.5;91
74484;SHT31;62942;52.462;10.846;2024-03-08T03:19:56;-1.5;90.9
74484;SHT31;62942;52.462;10.846;2024-03-08T03:21:06;-1.5;90.8
74484;SHT31;62942;52.462;10.846;2024-03-08T03:22:16;-1.5;90.7
74484;SHT31;62942;52.462;10.846;2024-03-08T03:23:26;-1.4;90.6
74484;SHT31;62942;52.462;10.846;2024-03-08T03:24:36;-1.4;90.5
74484;SHT31;62942;52.462;10.846;2024-03-08T03:25:46;-1.4;90.4
74484;SHT31;62942;52.462;10.846;2024-03-08T03:26:46;-1.4;90.4
74484;SHT31;62942;52.462;10.846;2024-03-08T03:27:56;-1.4;90.3
74484;SHT31;62942;52.462;10.846;2024-03-08T03:28:56;-1.4;90.3
74484;SHT31;62942;52.462;10.846;2024-03-08T03:30:06;-1.4;90.2
74484;SHT31;62942;52.462;10.846;2024-03-08T03:31:06;-1.4;90.1
74484;SHT31;62942;52.462;10.846;2024-03-08T03:32:16;-1.4;90.1
74484;SHT31;62942;52.462;10.846;2024-03-08T03:33:26;-1.5;90
74484;SHT31;62942;52.462;10.846;2024-03-08T03:34:26;-1.4;90.1
74484;SHT31;62942;52.462;10.846;2024-03-08T03:35:36;-1.5;90
74484;SHT31;62942;52.462;10.846;2024-03-08T03:36:36;-1.5;90
74484;SHT31;62942;52.462;10.846;2024-03-08T03:37:46;-1.5;90
74484;SHT31;62942;52.462;10.846;2024-03-08T03:38:46;-1.5;89.9
74484;SHT31;62942;52.462;10.846;2024-03-08T03:39:56;-1.5;89.9
74484;SHT31;62942;52.462;10.846;2024-03-08T03:41:06;-1.5;89.9
74484;SHT31;62942;52.462;10.846;2024-03-08T03:42:06;-1.5;89.9
74484;SHT31;62942;52.462;10.846;2024-03-08T03:43:16;-1.5;89.9
74484;SHT31;62942;52.462;10.846;2024-03-08T03:44:16;-1.6;89.9
74484;SHT31;62942;52.462;10.846;2024-03-08T03:45:26;-1.6;89.9
74484;SHT31;62942;52.462;10.846;2024-03-08T03:46:36;-1.6;89.9
74484;SHT31;62942;52.462;10.846;2024-03-08T03:47:46;-1.6;90
74484;SHT31;62942;52.462;10.846;2024-03-08T03:48:56;-1.6;89.9
74484;SHT31;62942;52.462;10.846;2024-03-08T03:49:56;-1.6;90
74484;SHT31;62942;52.462;10.846;2024-03-08T03:51:06;-1.6;90
74484;SHT31;62942;52.462;10.846;2024-03-08T03:52:16;-1.7;90
74484;SHT31;62942;52.462;10.846;2024-03-08T03:53:26;-1.7;90.1
74484;SHT31;62942;52.462;10.846;2024-03-08T03:54:26;-1.7;90.2
74484;SHT31;62942;52.462;10.846;2024-03-08T03:55:36;-1.7;90.2
74484;SHT31;62942;52.462;10.846;2024-03-08T03:56:46;-1.7;90.2
74484;SHT31;62942;52.462;10.846;2024-03-08T03:57:56;-1.7;90.3
74484;SHT31;62942;52.462;10.846;2024-03-08T03:59:06;-1.8;90.3
74484;SHT31;62942;52.462;10.846;2024-03-08T04:00:16;-1.8;90.3
74484;SHT31;62942;52.462;10.846;2024-03-08T04:01:26;-1.8;90.4
74484;SHT31;62942;52.462;10.846;2024-03-08T04:02:36;-1.8;90.4
74484;SHT31;62942;52.462;10.846;2024-03-08T04:03:36;-1.8;90.5
74484;SHT31;62942;52.462;10.846;2024-03-08T04:04:46;-1.8;90.5
74484;SHT31;62942;52.462;10.846;2024-03-08T04:05:56;-1.9;90.5
74484;SHT31;62942;52.462;10.846;2024-03-08T04:06:56;-1.9;90.6
74484;SHT31;62942;52.462;10.846;2024-03-08T04:08:06;-1.9;90.6
74484;SHT31;62942;52.462;10.846;2024-03-08T04:09:16;-1.9;90.6
74484;SHT31;62942;52.462;10.846;2024-03-08T04:10:26;-1.9;90.7
74484;SHT31;62942;52.462;10.846;2024-03-08T04:11:36;-1.9;90.7
74484;SHT31;62942;52.462;10.846;2024-03-08T04:12:36;-1.9;90.7
74484;SHT31;62942;52.462;10.846;2024-03-08T04:13:46;-1.9;90.8
74484;SHT31;62942;52.462;10.846;2024-03-08T04:14:56;-2;90.8
74484;SHT31;62942;52.462;10.846;2024-03-08T04:16:06;-2;90.9
74484;SHT31;62942;52.462;10.846;2024-03-08T04:17:06;-2;90.9
74484;SHT31;62942;52.462;10.846;2024-03-08T04:18:16;-2;90.9
74484;SHT31;62942;52.462;10.846;2024-03-08T04:19:26;-2;91
74484;SHT31;62942;52.462;10.846;2024-03-08T04:20:36;-2;91
74484;SHT31;62942;52.462;10.846;2024-03-08T04:21:46;-2;91
74484;SHT31;62942;52.462;10.846;2024-03-08T04:22:46;-2;91.1
74484;SHT31;62942;52.462;10.846;2024-03-08T04:23:56;-2;91.1
74484;SHT31;62942;52.462;10.846;2024-03-08T04:25:06;-2;91.2
74484;SHT31;62942;52.462;10.846;2024-03-08T04:26:16;-2;91.2
74484;SHT31;62942;52.462;10.846;2024-03-08T04:27:16;-2;91.2
74484;SHT31;62942;52.462;10.846;2024-03-08T04:28:26;-2.1;91.3
74484;SHT31;62942;52.462;10.846;2024-03-08T04:29:36;-2;91.4
74484;SHT31;62942;52.462;10.846;2024-03-08T04:30:46;-2.1;91.3
74484;SHT31;62942;52.462;10.846;2024-03-08T04:31:46;-2.1;91.4
74484;SHT31;62942;52.462;10.846;2024-03-08T04:32:46;-2.1;91.4
74484;SHT31;62942;52.462;10.846;2024-03-08T04:33:56;-2.1;91.4
74484;SHT31;62942;52.462;10.846;2024-03-08T04:34:56;-2.1;91.4
74484;SHT31;62942;52.462;10.846;2024-03-08T04:35:56;-2.1;91.5
74484;SHT31;62942;52.462;10.846;2024-03-08T04:37:06;-2.1;91.6
74484;SHT31;62942;52.462;10.846;2024-03-08T04:38:06;-2.1;91.7
74484;SHT31;62942;52.462;10.846;2024-03-08T04:39:16;-2.1;91.7
74484;SHT31;62942;52.462;10.846;2024-03-08T04:40:16;-2;91.7
74484;SHT31;62942;52.462;10.846;2024-03-08T04:41:16;-2;91.8
74484;SHT31;62942;52.462;10.846;2024-03-08T04:42:26;-2;91.7
74484;SHT31;62942;52.462;10.846;2024-03-08T04:43:36;-2;91.7
74484;SHT31;62942;52.462;10.846;2024-03-08T04:44:46;-2;91.7
74484;SHT31;62942;52.462;10.846;2024-03-08T04:45:56;-2;91.7
74484;SHT31;62942;52.462;10.846;2024-03-08T04:46:56;-2;91.6
74484;SHT31;62942;52.462;10.846;2024-03-08T04:48:06;-2;91.6
74484;SHT31;62942;52.462;10.846;2024-03-08T04:49:16;-2;91.6
74484;SHT31;62942;52.462;10.846;2024-03-08T04:50:16;-2;91.5
74484;SHT31;62942;52.462;10.846;2024-03-08T04:51:26;-2;91.5
74484;SHT31;62942;52.462;10.846;2024-03-08T04:52:26;-2.1;91.6
74484;SHT31;62942;52.462;10.846;2024-03-08T04:53:36;-2.1;91.5
74484;SHT31;62942;52.462;10.846;2024-03-08T04:54:46;-2.1;91.5
74484;SHT31;62942;52.462;10.846;2024-03-08T04:55:56;-2.1;91.5
74484;SHT31;62942;52.462;10.846;2024-03-08T04:56:56;-2.1;91.5
74484;SHT31;62942;52.462;10.846;2024-03-08T04:58:06;-2.1;91.6
74484;SHT31;62942;52.462;10.846;2024-03-08T04:59:16;-2.1;91.6
74484;SHT31;62942;52.462;10.846;2024-03-08T05:00:16;-2.1;91.6
74484;SHT31;62942;52.462;10.846;2024-03-08T05:01:16;-2.2;91.7
74484;SHT31;62942;52.462;10.846;2024-03-08T05:02:26;-2.2;91.6
74484;SHT31;62942;52.462;10.846;2024-03-08T05:03:36;-2.2;91.6
74484;SHT31;62942;52.462;10.846;2024-03-08T05:04:36;-2.2;91.7
74484;SHT31;62942;52.462;10.846;2024-03-08T05:05:46;-2.2;91.7
74484;SHT31;62942;52.462;10.846;2024-03-08T05:06:46;-2.2;91.7
74484;SHT31;62942;52.462;10.846;2024-03-08T05:07:56;-2.2;91.8
74484;SHT31;62942;52.462;10.846;2024-03-08T05:08:56;-2.2;91.8
74484;SHT31;62942;52.462;10.846;2024-03-08T05:09:56;-2.2;91.8
74484;SHT31;62942;52.462;10.846;2024-03-08T05:11:06;-2.3;91.8
74484;SHT31;62942;52.462;10.846;2024-03-08T05:12:06;-2.3;91.9
74484;SHT31;62942;52.462;10.846;2024-03-08T05:13:16;-2.3;91.9
74484;SHT31;62942;52.462;10.846;2024-03-08T05:14:26;-2.2;92
74484;SHT31;62942;52.462;10.846;2024-03-08T05:15:36;-2.3;92.1
74484;SHT31;62942;52.462;10.846;2024-03-08T05:16:36;-2.3;92
74484;SHT31;62942;52.462;10.846;2024-03-08T05:17:46;-2.3;92
74484;SHT31;62942;52.462;10.846;2024-03-08T05:18:56;-2.3;92.1
74484;SHT31;62942;52.462;10.846;2024-03-08T05:19:56;-2.2;92.1
74484;SHT31;62942;52.462;10.846;2024-03-08T05:21:06;-2.2;92.1
74484;SHT31;62942;52.462;10.846;2024-03-08T05:22:06;-2.2;92.1
74484;SHT31;62942;52.462;10.846;2024-03-08T05:23:16;-2.2;92.2
74484;SHT31;62942;52.462;10.846;2024-03-08T05:24:27;-2.2;92.2
74484;SHT31;62942;52.462;10.846;2024-03-08T05:25:36;-2.2;92.1
74484;SHT31;62942;52.462;10.846;2024-03-08T05:26:46;-2.2;92.1
74484;SHT31;62942;52.462;10.846;2024-03-08T05:27:56;-2.2;92.2
74484;SHT31;62942;52.462;10.846;2024-03-08T05:29:06;-2.2;92.1
74484;SHT31;62942;52.462;10.846;2024-03-08T05:30:16;-2.2;92.1
74484;SHT31;62942;52.462;10.846;2024-03-08T05:31:26;-2.3;92.1
74484;SHT31;62942;52.462;10.846;2024-03-08T05:32:36;-2.3;92.1
74484;SHT31;62942;52.462;10.846;2024-03-08T05:33:46;-2.3;92.1
74484;SHT31;62942;52.462;10.846;2024-03-08T05:34:46;-2.3;92.1
74484;SHT31;62942;52.462;10.846;2024-03-08T05:35:46;-2.3;92.1
74484;SHT31;62942;52.462;10.846;2024-03-08T05:36:56;-2.3;92.1
74484;SHT31;62942;52.462;10.846;2024-03-08T05:38:06;-2.3;92.1
74484;SHT31;62942;52.462;10.846;2024-03-08T05:39:16;-2.3;92.1
74484;SHT31;62942;52.462;10.846;2024-03-08T05:40:26;-2.3;92.1
74484;SHT31;62942;52.462;10.846;2024-03-08T05:41:26;-2.3;92.2
74484;SHT31;62942;52.462;10.846;2024-03-08T05:42:36;-2.3;92.2
74484;SHT31;62942;52.462;10.846;2024-03-08T05:43:36;-2.3;92.2
74484;SHT31;62942;52.462;10.846;2024-03-08T05:44:36;-2.3;92.2
74484;SHT31;62942;52.462;10.846;2024-03-08T05:45:46;-2.3;92.2
74484;SHT31;62942;52.462;10.846;2024-03-08T05:46:46;-2.3;92.2
74484;SHT31;62942;52.462;10.846;2024-03-08T05:47:56;-2.3;92.3
74484;SHT31;62942;52.462;10.846;2024-03-08T05:49:06;-2.4;92.3
74484;SHT31;62942;52.462;10.846;2024-03-08T05:50:16;-2.3;92.2
74484;SHT31;62942;52.462;10.846;2024-03-08T05:51:26;-2.3;92.3
74484;SHT31;62942;52.462;10.846;2024-03-08T05:52:36;-2.3;92.3
74484;SHT31;62942;52.462;10.846;2024-03-08T05:53:46;-2.4;92.3
74484;SHT31;62942;52.462;10.846;2024-03-08T05:54:56;-2.4;92.3
74484;SHT31;62942;52.462;10.846;2024-03-08T05:55:56;-2.3;92.4
74484;SHT31;62942;52.462;10.846;2024-03-08T05:57:06;-2.3;92.4
74484;SHT31;62942;52.462;10.846;2024-03-08T05:58:16;-2.4;92.4
74484;SHT31;62942;52.462;10.846;2024-03-08T05:59:26;-2.4;92.4
74484;SHT31;62942;52.462;10.846;2024-03-08T06:00:36;-2.4;92.4
74484;SHT31;62942;52.462;10.846;2024-03-08T06:01:46;-2.3;92.4
74484;SHT31;62942;52.462;10.846;2024-03-08T06:02:46;-2.3;92.5
74484;SHT31;62942;52.462;10.846;2024-03-08T06:03:56;-2.3;92.5
74484;SHT31;62942;52.462;10.846;2024-03-08T06:05:07;-2.3;92.5
74484;SHT31;62942;52.462;10.846;2024-03-08T06:06:06;-2.2;92.5
74484;SHT31;62942;52.462;10.846;2024-03-08T06:07:16;-2.2;92.5
74484;SHT31;62942;52.462;10.846;2024-03-08T06:08:30;-2.2;92.5
74484;SHT31;62942;52.462;10.846;2024-03-08T06:09:36;-2.2;92.5
74484;SHT31;62942;52.462;10.846;2024-03-08T06:10:36;-2.2;92.4
74484;SHT31;62942;52.462;10.846;2024-03-08T06:11:46;-2.1;92.4
74484;SHT31;62942;52.462;10.846;2024-03-08T06:12:46;-2.1;92.3
74484;SHT31;62942;52.462;10.846;2024-03-08T06:13:56;-2.1;92.3
74484;SHT31;62942;52.462;10.846;2024-03-08T06:15:06;-2.1;92.3
74484;SHT31;62942;52.462;10.846;2024-03-08T06:16:16;-2;92.2
74484;SHT31;62942;52.462;10.846;2024-03-08T06:17:26;-2;92.1
74484;SHT31;62942;52.462;10.846;2024-03-08T06:18:26;-1.9;92
74484;SHT31;62942;52.462;10.846;2024-03-08T06:19:26;-1.9;92
74484;SHT31;62942;52.462;10.846;2024-03-08T06:20:36;-1.8;91.9
74484;SHT31;62942;52.462;10.846;2024-03-08T06:21:46;-1.8;91.8
74484;SHT31;62942;52.462;10.846;2024-03-08T06:22:46;-1.7;91.6
74484;SHT31;62942;52.462;10.846;2024-03-08T06:23:56;-1.7;91.5
74484;SHT31;62942;52.462;10.846;2024-03-08T06:25:06;-1.6;91.4
74484;SHT31;62942;52.462;10.846;2024-03-08T06:26:16;-1.5;91.2
74484;SHT31;62942;52.462;10.846;2024-03-08T06:27:26;-1.4;91
74484;SHT31;62942;52.462;10.846;2024-03-08T06:28:36;-1.4;90.8
74484;SHT31;62942;52.462;10.846;2024-03-08T06:29:36;-1.3;90.7
74484;SHT31;62942;52.462;10.846;2024-03-08T06:30:36;-1.3;90.5
74484;SHT31;62942;52.462;10.846;2024-03-08T06:31:46;-1.2;90.3
74484;SHT31;62942;52.462;10.846;2024-03-08T06:32:56;-1.1;90.1
74484;SHT31;62942;52.462;10.846;2024-03-08T06:33:56;-1.1;89.9
74484;SHT31;62942;52.462;10.846;2024-03-08T06:34:56;-1.1;89.7
74484;SHT31;62942;52.462;10.846;2024-03-08T06:35:56;-1;89.4
74484;SHT31;62942;52.462;10.846;2024-03-08T06:36:56;-1;89.4
74484;SHT31;62942;52.462;10.846;2024-03-08T06:38:06;-0.9;89.2
74484;SHT31;62942;52.462;10.846;2024-03-08T06:39:16;-0.8;88.9
74484;SHT31;62942;52.462;10.846;2024-03-08T06:40:26;-0.8;88.6
74484;SHT31;62942;52.462;10.846;2024-03-08T06:41:36;-0.7;88.5
74484;SHT31;62942;52.462;10.846;2024-03-08T06:42:36;-0.7;88.5
74484;SHT31;62942;52.462;10.846;2024-03-08T06:43:46;-0.6;88.1
74484;SHT31;62942;52.462;10.846;2024-03-08T06:44:56;-0.6;87.9
74484;SHT31;62942;52.462;10.846;2024-03-08T06:46:06;-0.5;87.8
74484;SHT31;62942;52.462;10.846;2024-03-08T06:47:06;-0.5;87.7
74484;SHT31;62942;52.462;10.846;2024-03-08T06:48:16;-0.4;87.4
74484;SHT31;62942;52.462;10.846;2024-03-08T06:49:16;-0.4;87.2
74484;SHT31;62942;52.462;10.846;2024-03-08T06:50:26;-0.3;87.1
74484;SHT31;62942;52.462;10.846;2024-03-08T06:51:36;-0.3;86.9
74484;SHT31;62942;52.462;10.846;2024-03-08T06:52:36;-0.2;86.7
74484;SHT31;62942;52.462;10.846;2024-03-08T06:53:36;-0.1;86.7
74484;SHT31;62942;52.462;10.846;2024-03-08T06:54:46;-0.1;86.6
74484;SHT31;62942;52.462;10.846;2024-03-08T06:55:56;0;86.3
74484;SHT31;62942;52.462;10.846;2024-03-08T06:57:06;0;86.2
74484;SHT31;62942;52.462;10.846;2024-03-08T06:58:16;0.1;86
74484;SHT31;62942;52.462;10.846;2024-03-08T06:59:26;0.2;85.8
74484;SHT31;62942;52.462;10.846;2024-03-08T07:00:36;0.2;85.3
74484;SHT31;62942;52.462;10.846;2024-03-08T07:01:46;0.3;85.3
74484;SHT31;62942;52.462;10.846;2024-03-08T07:02:56;0.4;85.2
74484;SHT31;62942;52.462;10.846;2024-03-08T07:03:56;0.4;85
74484;SHT31;62942;52.462;10.846;2024-03-08T07:04:56;0.5;84.8
74484;SHT31;62942;52.462;10.846;2024-03-08T07:06:06;0.5;84.6
74484;SHT31;62942;52.462;10.846;2024-03-08T07:07:06;0.6;84.4
74484;SHT31;62942;52.462;10.846;2024-03-08T07:08:16;0.7;83.9
74484;SHT31;62942;52.462;10.846;2024-03-08T07:09:16;0.8;83.9
74484;SHT31;62942;52.462;10.846;2024-03-08T07:10:26;0.8;83.7
74484;SHT31;62942;52.462;10.846;2024-03-08T07:11:26;0.9;83.3
74484;SHT31;62942;52.462;10.846;2024-03-08T07:12:36;1;83.2
74484;SHT31;62942;52.462;10.846;2024-03-08T07:13:46;1;82.6